Angelus Oaks, California
Current Conditions -  °F | °C
As of 7:15 AM on Saturday 25 Oct 2014 (Local Time) from KL35 Reporting Station
Scattered Clouds Scattered Clouds  
Wind Chill: 50°   Ceiling: Unl
Heat Index: 50°   Visibility: 10mi
Dew Point: 37°   Wind: 5mph
Humidity: 62%   Direction: 270°W
Pressure: 30.26"   Gusts: NA
Location:  34.15°N, 116.98°W
Report Text: KL35 251415Z AUTO 27004KT 10SM SCT035 10/03 A3026 RMK AO2
Loading
Personal Weather Stations






























Interactive Weather Map
Tropical Storm Tracking
New forecast layout! Learn more

10-Day Weather Forecast

Advertisements
Track Severe Weather on mobile